Time;durP1;ratioP1;P1;durP2;ratioP2;P2;SDS_P1;SDS_P2;PMS_P1;PMS_P2;Temp;Humidity;BMP_temperature;BMP_pressure;BME280_temperature;BME280_humidity;BME280_pressure;Samples;Min_cycle;Max_cycle;Signal;HPM_P1;HPM_P2
2023/03/15 00:02:04;;;;;;;;;;;26.10;99.90;;;;;;4893122;29;20336;-50
2023/03/15 00:04:33;;;;;;;;;;;26.00;99.90;;;;;;4894927;29;19907;-51
2023/03/15 00:06:59;;;;;;;;;;;26.00;99.90;;;;;;4894735;29;20002;-51
2023/03/15 00:09:25;;;;;;;;;;;26.00;99.90;;;;;;4894832;29;19994;-51
2023/03/15 00:11:51;;;;;;;;;;;26.00;99.90;;;;;;4895255;29;20360;-50
2023/03/15 00:14:17;;;;;;;;;;;26.00;99.90;;;;;;4898336;29;20271;-51
2023/03/15 00:16:43;;;;;;;;;;;26.00;99.90;;;;;;4898312;29;19915;-51
2023/03/15 00:19:09;;;;;;;;;;;26.00;99.90;;;;;;4898495;29;19911;-52
2023/03/15 00:21:35;;;;;;;;;;;25.90;99.90;;;;;;4895405;29;20411;-51
2023/03/15 00:24:01;;;;;;;;;;;25.90;99.90;;;;;;4895400;29;19955;-52
2023/03/15 00:26:26;;;;;;;;;;;25.90;99.90;;;;;;4897538;29;19954;-51
2023/03/15 00:28:52;;;;;;;;;;;25.90;99.90;;;;;;4898346;29;20301;-51
2023/03/15 00:31:19;;;;;;;;;;;25.90;99.90;;;;;;4895604;29;19919;-51
2023/03/15 00:33:45;;;;;;;;;;;25.80;99.90;;;;;;4897288;29;19994;-51
2023/03/15 00:36:11;;;;;;;;;;;25.80;99.90;;;;;;4896881;29;20002;-51
2023/03/15 00:38:37;;;;;;;;;;;25.90;99.90;;;;;;4905689;29;19907;-51
2023/03/15 00:41:07;;;;;;;;;;;25.80;99.90;;;;;;4922359;29;19919;-51
2023/03/15 00:43:33;;;;;;;;;;;25.80;99.90;;;;;;4919395;29;19911;-51
2023/03/15 00:45:59;;;;;;;;;;;25.80;99.90;;;;;;4919241;29;19914;-51
2023/03/15 00:48:24;;;;;;;;;;;25.80;99.90;;;;;;4902066;29;19911;-50
2023/03/15 00:50:50;;;;;;;;;;;25.80;99.90;;;;;;4898302;29;19923;-51
2023/03/15 00:53:16;;;;;;;;;;;25.80;99.90;;;;;;4898805;29;20416;-51
2023/03/15 00:55:41;;;;;;;;;;;25.80;99.90;;;;;;4895541;29;20010;-50
2023/03/15 00:58:07;;;;;;;;;;;25.80;99.90;;;;;;4901711;29;19915;-51
2023/03/15 01:00:33;;;;;;;;;;;25.80;99.90;;;;;;4906788;29;19972;-51
2023/03/15 01:02:59;;;;;;;;;;;25.70;99.90;;;;;;4898357;29;19911;-51
2023/03/15 01:05:25;;;;;;;;;;;25.70;99.90;;;;;;4898547;29;20001;-52
2023/03/15 01:07:51;;;;;;;;;;;25.70;99.90;;;;;;4898468;29;19995;-51
2023/03/15 01:10:17;;;;;;;;;;;25.70;99.90;;;;;;4897580;29;19987;-51
2023/03/15 01:12:42;;;;;;;;;;;25.70;99.90;;;;;;4898511;29;20336;-51
2023/03/15 01:15:10;;;;;;;;;;;25.70;99.90;;;;;;4898308;29;19907;-51
2023/03/15 01:17:36;;;;;;;;;;;25.60;99.90;;;;;;4898548;29;19911;-51
2023/03/15 01:20:04;;;;;;;;;;;25.60;99.90;;;;;;4898106;29;19970;-51
2023/03/15 01:22:29;;;;;;;;;;;25.60;99.90;;;;;;4897945;29;19907;-51
2023/03/15 01:24:55;;;;;;;;;;;25.60;99.90;;;;;;4898000;29;19959;-51
2023/03/15 01:27:21;;;;;;;;;;;25.60;99.90;;;;;;4899108;29;20016;-51
2023/03/15 01:29:46;;;;;;;;;;;25.50;99.90;;;;;;4899415;29;20321;-51
2023/03/15 01:32:12;;;;;;;;;;;25.50;99.90;;;;;;4899518;29;19955;-51
2023/03/15 01:34:38;;;;;;;;;;;25.50;99.90;;;;;;4899671;29;19908;-51
2023/03/15 01:37:03;;;;;;;;;;;25.50;99.90;;;;;;4899610;29;20080;-51
2023/03/15 01:39:29;;;;;;;;;;;25.50;99.90;;;;;;4898929;29;20014;-51
2023/03/15 01:41:55;;;;;;;;;;;25.50;99.90;;;;;;4899324;29;19998;-51
2023/03/15 01:44:20;;;;;;;;;;;25.50;99.90;;;;;;4898216;29;20006;-50
2023/03/15 01:46:46;;;;;;;;;;;25.40;99.90;;;;;;4897982;29;19939;-51
2023/03/15 01:49:31;;;;;;;;;;;25.40;99.90;;;;;;4899675;29;19912;-52
2023/03/15 01:52:01;;;;;;;;;;;25.40;99.90;;;;;;4899153;29;19947;-50
2023/03/15 01:54:30;;;;;;;;;;;25.40;99.90;;;;;;4899127;29;20329;-51
2023/03/15 01:56:58;;;;;;;;;;;25.40;99.90;;;;;;4899152;29;19907;-50
2023/03/15 01:59:29;;;;;;;;;;;25.40;99.90;;;;;;4899512;29;19983;-51
2023/03/15 02:01:54;;;;;;;;;;;25.40;99.90;;;;;;4899025;29;19923;-51
2023/03/15 02:04:23;;;;;;;;;;;25.30;99.90;;;;;;4898915;29;19907;-51
2023/03/15 02:06:49;;;;;;;;;;;25.30;99.90;;;;;;4898985;29;19915;-51
2023/03/15 02:09:16;;;;;;;;;;;25.30;99.90;;;;;;4898832;29;19919;-51
2023/03/15 02:11:42;;;;;;;;;;;25.30;99.90;;;;;;4898953;29;19998;-51
2023/03/15 02:14:10;;;;;;;;;;;25.30;99.90;;;;;;4898933;29;19958;-51
2023/03/15 02:16:37;;;;;;;;;;;25.30;99.90;;;;;;4898640;29;19908;-51
2023/03/15 02:19:03;;;;;;;;;;;25.30;99.90;;;;;;4898615;29;20384;-51
2023/03/15 02:21:32;;;;;;;;;;;25.20;99.90;;;;;;4898744;29;19908;-50
2023/03/15 02:24:03;;;;;;;;;;;25.20;99.90;;;;;;4898758;29;19930;-51
2023/03/15 02:26:33;;;;;;;;;;;25.20;99.90;;;;;;4898483;29;19907;-50
2023/03/15 02:29:00;;;;;;;;;;;25.20;99.90;;;;;;4898405;29;19922;-51
2023/03/15 02:31:25;;;;;;;;;;;25.20;99.90;;;;;;4898455;29;19934;-51
2023/03/15 02:33:52;;;;;;;;;;;25.20;99.90;;;;;;4898419;29;19908;-51
2023/03/15 02:36:19;;;;;;;;;;;25.10;99.90;;;;;;4897988;29;19907;-51
2023/03/15 02:38:45;;;;;;;;;;;25.10;99.90;;;;;;4890443;29;19956;-51
2023/03/15 02:41:12;;;;;;;;;;;25.10;99.90;;;;;;4878435;29;19949;-51
2023/03/15 02:43:38;;;;;;;;;;;25.10;99.90;;;;;;4878163;29;20412;-51
2023/03/15 02:46:04;;;;;;;;;;;25.10;99.90;;;;;;4878098;29;19918;-51
2023/03/15 02:48:31;;;;;;;;;;;25.10;99.90;;;;;;4879594;29;20356;-51
2023/03/15 02:50:56;;;;;;;;;;;25.10;99.90;;;;;;4879433;29;19971;-51
2023/03/15 02:53:22;;;;;;;;;;;25.00;99.90;;;;;;4879485;29;20309;-51
2023/03/15 02:55:47;;;;;;;;;;;25.00;99.90;;;;;;4879445;29;19909;-51
2023/03/15 02:58:13;;;;;;;;;;;25.00;99.90;;;;;;4879850;29;20264;-51
2023/03/15 03:00:39;;;;;;;;;;;25.00;99.90;;;;;;4931875;23;19923;-57
2023/03/15 03:03:04;;;;;;;;;;;25.00;99.90;;;;;;4916126;29;19918;-58
2023/03/15 03:05:30;;;;;;;;;;;25.00;99.90;;;;;;4916708;29;19907;-59
2023/03/15 03:07:57;;;;;;;;;;;25.00;99.90;;;;;;4916807;29;19950;-57
2023/03/15 03:10:23;;;;;;;;;;;25.00;99.90;;;;;;4916480;29;20013;-57
2023/03/15 03:12:52;;;;;;;;;;;25.00;99.90;;;;;;4916791;29;20046;-56
2023/03/15 03:15:18;;;;;;;;;;;25.00;99.90;;;;;;4916797;29;20005;-57
2023/03/15 03:17:43;;;;;;;;;;;24.90;99.90;;;;;;4917015;29;19950;-57
2023/03/15 03:20:10;;;;;;;;;;;24.90;99.90;;;;;;4916641;29;19907;-57
2023/03/15 03:22:36;;;;;;;;;;;24.90;99.90;;;;;;4915425;29;20294;-56
2023/03/15 03:25:02;;;;;;;;;;;24.90;99.90;;;;;;4916470;29;20286;-56
2023/03/15 03:27:28;;;;;;;;;;;24.90;99.90;;;;;;4916526;29;19974;-56
2023/03/15 03:29:54;;;;;;;;;;;24.80;99.90;;;;;;4916563;29;20367;-56
2023/03/15 03:32:19;;;;;;;;;;;24.90;99.90;;;;;;4916608;29;19985;-57
2023/03/15 03:34:47;;;;;;;;;;;24.80;99.90;;;;;;4916664;29;20355;-57
2023/03/15 03:37:15;;;;;;;;;;;24.80;99.90;;;;;;4916658;29;20279;-57
2023/03/15 03:39:41;;;;;;;;;;;24.80;99.90;;;;;;4916522;29;19945;-57
2023/03/15 03:42:06;;;;;;;;;;;24.80;99.90;;;;;;4916629;29;19911;-57
2023/03/15 03:44:32;;;;;;;;;;;24.80;99.90;;;;;;4916332;29;20430;-57
2023/03/15 03:46:58;;;;;;;;;;;24.70;99.90;;;;;;4917046;29;19907;-56
2023/03/15 03:49:23;;;;;;;;;;;24.80;99.90;;;;;;4920339;29;19915;-57
2023/03/15 03:51:49;;;;;;;;;;;24.70;99.90;;;;;;4920283;29;20006;-57
2023/03/15 03:54:14;;;;;;;;;;;24.70;99.90;;;;;;4920405;29;19950;-55
2023/03/15 03:56:40;;;;;;;;;;;24.70;99.90;;;;;;4920162;29;20345;-55
2023/03/15 03:59:06;;;;;;;;;;;24.70;99.90;;;;;;4918935;29;19914;-56
2023/03/15 04:01:32;;;;;;;;;;;24.70;99.90;;;;;;4920421;29;19966;-57
2023/03/15 04:03:58;;;;;;;;;;;24.70;99.90;;;;;;4918926;29;19998;-57
2023/03/15 04:06:23;;;;;;;;;;;24.70;99.90;;;;;;4920024;29;20050;-57
2023/03/15 04:08:49;;;;;;;;;;;24.70;99.90;;;;;;4919874;29;19959;-57
2023/03/15 04:11:16;;;;;;;;;;;24.60;99.90;;;;;;4920039;29;19907;-55
2023/03/15 04:13:43;;;;;;;;;;;24.60;99.90;;;;;;4919855;29;19907;-56
2023/03/15 04:16:08;;;;;;;;;;;24.60;99.90;;;;;;4919752;29;20423;-57
2023/03/15 04:18:34;;;;;;;;;;;24.60;99.90;;;;;;4920194;29;20001;-55
2023/03/15 04:21:00;;;;;;;;;;;24.60;99.90;;;;;;4919821;29;19994;-56
2023/03/15 04:23:25;;;;;;;;;;;24.60;99.90;;;;;;4919679;29;20256;-56
2023/03/15 04:25:51;;;;;;;;;;;24.60;99.90;;;;;;4919595;29;19911;-56
2023/03/15 04:28:18;;;;;;;;;;;24.60;99.90;;;;;;4919769;29;19963;-56
2023/03/15 04:30:44;;;;;;;;;;;24.50;99.90;;;;;;4919493;29;19922;-55
2023/03/15 04:33:10;;;;;;;;;;;24.50;99.90;;;;;;4919550;29;20362;-55
2023/03/15 04:35:36;;;;;;;;;;;24.50;99.90;;;;;;4919478;29;19911;-55
2023/03/15 04:38:02;;;;;;;;;;;24.50;99.90;;;;;;4919611;29;19961;-55
2023/03/15 04:40:28;;;;;;;;;;;24.50;99.90;;;;;;4919435;29;20326;-56
2023/03/15 04:42:54;;;;;;;;;;;24.50;99.90;;;;;;4919527;29;19990;-56
2023/03/15 04:45:20;;;;;;;;;;;24.50;99.90;;;;;;4919411;29;19952;-56
2023/03/15 04:47:47;;;;;;;;;;;24.50;99.90;;;;;;4919486;29;19946;-56
2023/03/15 04:50:13;;;;;;;;;;;24.50;99.90;;;;;;4918994;29;19914;-56
2023/03/15 04:52:38;;;;;;;;;;;24.50;99.90;;;;;;4919040;29;20002;-57
2023/03/15 04:55:04;;;;;;;;;;;24.50;99.90;;;;;;4919017;29;19907;-56
2023/03/15 04:57:30;;;;;;;;;;;24.50;99.90;;;;;;4918739;29;19922;-56
2023/03/15 04:59:56;;;;;;;;;;;24.40;99.90;;;;;;4930999;23;19930;-50
2023/03/15 05:02:21;;;;;;;;;;;24.50;99.90;;;;;;4919721;29;20323;-49
2023/03/15 05:04:47;;;;;;;;;;;24.40;99.90;;;;;;4919080;29;19966;-50
2023/03/15 05:07:13;;;;;;;;;;;24.40;99.90;;;;;;4918827;29;19907;-50
2023/03/15 05:09:38;;;;;;;;;;;24.40;99.90;;;;;;4918797;29;19922;-50
2023/03/15 05:12:04;;;;;;;;;;;24.40;99.90;;;;;;4918946;29;19942;-50
2023/03/15 05:14:30;;;;;;;;;;;24.40;99.90;;;;;;4918738;29;20351;-50
2023/03/15 05:16:58;;;;;;;;;;;24.40;99.90;;;;;;4911585;29;19911;-51
2023/03/15 05:19:27;;;;;;;;;;;24.40;99.90;;;;;;4931166;29;19938;-50
2023/03/15 05:21:56;;;;;;;;;;;24.40;99.90;;;;;;4917023;29;20295;-50
2023/03/15 05:24:22;;;;;;;;;;;24.30;99.90;;;;;;4916772;29;19911;-50
2023/03/15 05:26:47;;;;;;;;;;;24.30;99.90;;;;;;4917365;29;19907;-50
2023/03/15 05:29:13;;;;;;;;;;;24.30;99.90;;;;;;4917660;29;19937;-51
2023/03/15 05:31:39;;;;;;;;;;;24.30;99.90;;;;;;4917241;29;19907;-50
2023/03/15 05:34:05;;;;;;;;;;;24.30;99.90;;;;;;4917708;29;20363;-50
2023/03/15 05:36:31;;;;;;;;;;;24.30;99.90;;;;;;4917111;29;20279;-51
2023/03/15 05:38:57;;;;;;;;;;;24.30;99.90;;;;;;4917713;29;19907;-51
2023/03/15 05:41:22;;;;;;;;;;;24.30;99.90;;;;;;4915624;29;19906;-50
2023/03/15 05:43:49;;;;;;;;;;;24.30;99.90;;;;;;4917607;29;19907;-51
2023/03/15 05:46:14;;;;;;;;;;;24.30;99.90;;;;;;4916842;29;20194;-50
2023/03/15 05:48:40;;;;;;;;;;;24.30;99.90;;;;;;4932766;29;19907;-50
2023/03/15 05:51:06;;;;;;;;;;;24.30;99.90;;;;;;4916011;29;19926;-50
2023/03/15 05:53:32;;;;;;;;;;;24.30;99.90;;;;;;4918114;29;19914;-50
2023/03/15 05:55:57;;;;;;;;;;;24.30;99.90;;;;;;4915850;29;20015;-50
2023/03/15 05:58:23;;;;;;;;;;;24.20;99.90;;;;;;4918284;29;20455;-50
2023/03/15 06:00:48;;;;;;;;;;;24.20;99.90;;;;;;4915600;29;19919;-50
2023/03/15 06:03:15;;;;;;;;;;;24.30;99.90;;;;;;4916706;29;20351;-50
2023/03/15 06:05:40;;;;;;;;;;;24.20;99.90;;;;;;4916016;29;19910;-51
2023/03/15 06:08:06;;;;;;;;;;;24.20;99.90;;;;;;4917057;29;20422;-50
2023/03/15 06:10:32;;;;;;;;;;;24.20;99.90;;;;;;4914720;29;20300;-50
2023/03/15 06:12:58;;;;;;;;;;;24.20;99.90;;;;;;4914847;29;19918;-50
2023/03/15 06:15:24;;;;;;;;;;;24.20;99.90;;;;;;4917250;29;19997;-51
2023/03/15 06:17:49;;;;;;;;;;;24.20;99.90;;;;;;4917421;29;20350;-50
2023/03/15 06:20:15;;;;;;;;;;;24.20;99.90;;;;;;4917540;29;19994;-50
2023/03/15 06:22:41;;;;;;;;;;;24.10;99.90;;;;;;4916539;29;19946;-50
2023/03/15 06:25:06;;;;;;;;;;;24.10;99.90;;;;;;4917484;29;19914;-51
2023/03/15 06:27:32;;;;;;;;;;;24.10;99.90;;;;;;4917343;29;19954;-50
2023/03/15 06:29:58;;;;;;;;;;;24.10;99.90;;;;;;4917367;29;19915;-51
2023/03/15 06:32:24;;;;;;;;;;;24.10;99.90;;;;;;4917419;29;19915;-51
2023/03/15 06:34:49;;;;;;;;;;;24.10;99.90;;;;;;4917573;29;20415;-50
2023/03/15 06:37:15;;;;;;;;;;;24.10;99.90;;;;;;4917456;29;19907;-51
2023/03/15 06:39:41;;;;;;;;;;;24.10;99.90;;;;;;4917191;29;20447;-51
2023/03/15 06:42:07;;;;;;;;;;;24.10;99.90;;;;;;4917321;29;19907;-50
2023/03/15 06:44:35;;;;;;;;;;;24.10;99.90;;;;;;4917175;29;19945;-50
2023/03/15 06:47:01;;;;;;;;;;;24.10;99.90;;;;;;4917121;29;19962;-50
2023/03/15 06:49:27;;;;;;;;;;;24.10;99.90;;;;;;4917115;29;19951;-50
2023/03/15 06:51:52;;;;;;;;;;;24.10;99.90;;;;;;4917218;29;19911;-50
2023/03/15 06:54:18;;;;;;;;;;;24.10;99.90;;;;;;4917143;29;20328;-50
2023/03/15 06:56:44;;;;;;;;;;;24.10;99.90;;;;;;4916913;29;19958;-50
2023/03/15 06:59:10;;;;;;;;;;;24.10;99.90;;;;;;4916832;29;19988;-50
2023/03/15 07:01:35;;;;;;;;;;;24.10;99.90;;;;;;4916534;29;19926;-50
2023/03/15 07:04:01;;;;;;;;;;;24.10;99.90;;;;;;4916854;29;19907;-52
2023/03/15 07:06:28;;;;;;;;;;;24.00;99.90;;;;;;4916967;29;20434;-51
2023/03/15 07:08:53;;;;;;;;;;;24.10;99.90;;;;;;4917038;29;19911;-51
2023/03/15 07:11:19;;;;;;;;;;;24.10;99.90;;;;;;4916808;29;19907;-51
2023/03/15 07:13:45;;;;;;;;;;;24.10;99.90;;;;;;4916847;29;19907;-51
2023/03/15 07:16:11;;;;;;;;;;;24.10;99.90;;;;;;4916618;29;19998;-51
2023/03/15 07:18:36;;;;;;;;;;;24.10;99.90;;;;;;4916755;29;20319;-50
2023/03/15 07:21:03;;;;;;;;;;;24.10;99.90;;;;;;4916610;29;19955;-50
2023/03/15 07:23:29;;;;;;;;;;;24.10;99.90;;;;;;4916846;29;19906;-51
2023/03/15 07:25:55;;;;;;;;;;;24.10;99.90;;;;;;4916710;29;19941;-51
2023/03/15 07:28:22;;;;;;;;;;;24.10;99.90;;;;;;4916417;29;19955;-50
2023/03/15 07:30:51;;;;;;;;;;;24.10;99.90;;;;;;4916315;29;19937;-50
2023/03/15 07:33:17;;;;;;;;;;;24.10;99.90;;;;;;4931201;29;20267;-50
2023/03/15 07:35:43;;;;;;;;;;;24.20;99.90;;;;;;4916518;29;19911;-51
2023/03/15 07:38:08;;;;;;;;;;;24.20;99.90;;;;;;4916412;29;19969;-50
2023/03/15 07:40:34;;;;;;;;;;;24.20;99.90;;;;;;4916345;29;19914;-51
2023/03/15 07:42:59;;;;;;;;;;;24.20;99.90;;;;;;4916898;29;20320;-50
2023/03/15 07:45:25;;;;;;;;;;;24.20;99.90;;;;;;4915164;29;19993;-51
2023/03/15 07:47:51;;;;;;;;;;;24.20;99.90;;;;;;4916255;29;20382;-50
2023/03/15 07:50:16;;;;;;;;;;;24.30;99.90;;;;;;4916163;29;20260;-50
2023/03/15 07:52:42;;;;;;;;;;;24.30;99.90;;;;;;4916311;29;19907;-50
2023/03/15 07:55:07;;;;;;;;;;;24.30;99.90;;;;;;4916197;29;19907;-51
2023/03/15 07:57:33;;;;;;;;;;;24.30;99.90;;;;;;4916282;29;19911;-51
2023/03/15 07:59:59;;;;;;;;;;;24.30;99.90;;;;;;4916275;29;19921;-50
2023/03/15 08:02:24;;;;;;;;;;;24.30;99.90;;;;;;4916221;29;19966;-50
2023/03/15 08:04:50;;;;;;;;;;;24.30;99.90;;;;;;4916245;29;19907;-50
2023/03/15 08:07:16;;;;;;;;;;;24.30;99.90;;;;;;4916309;29;19907;-51
2023/03/15 08:09:42;;;;;;;;;;;24.30;99.90;;;;;;4916141;29;19915;-50
2023/03/15 08:12:08;;;;;;;;;;;24.30;99.90;;;;;;4916163;29;20001;-50
2023/03/15 08:14:33;;;;;;;;;;;24.40;99.90;;;;;;4915970;29;19965;-50
2023/03/15 08:16:59;;;;;;;;;;;24.40;99.90;;;;;;4930806;29;20339;-50
2023/03/15 08:19:25;;;;;;;;;;;24.40;99.90;;;;;;4915925;29;20272;-50
2023/03/15 08:21:52;;;;;;;;;;;24.40;99.90;;;;;;4915988;29;20015;-50
2023/03/15 08:24:18;;;;;;;;;;;24.40;99.90;;;;;;4915922;29;20393;-50
2023/03/15 08:26:44;;;;;;;;;;;24.40;99.90;;;;;;4915866;29;19998;-50
2023/03/15 08:29:10;;;;;;;;;;;24.50;99.90;;;;;;4915827;29;19907;-50
2023/03/15 08:31:35;;;;;;;;;;;24.50;99.90;;;;;;4930458;29;19907;-50
2023/03/15 08:34:01;;;;;;;;;;;24.50;99.90;;;;;;4918355;29;19907;-50
2023/03/15 08:36:26;;;;;;;;;;;24.50;99.90;;;;;;4933946;29;19952;-50
2023/03/15 08:38:52;;;;;;;;;;;24.50;99.90;;;;;;4919444;29;20042;-50
2023/03/15 08:41:17;;;;;;;;;;;24.50;99.90;;;;;;4919306;29;20280;-50
2023/03/15 08:43:43;;;;;;;;;;;24.50;99.90;;;;;;4919475;29;19907;-51
2023/03/15 08:46:09;;;;;;;;;;;24.50;99.90;;;;;;4919390;29;20014;-50
2023/03/15 08:48:35;;;;;;;;;;;24.50;99.90;;;;;;4919224;29;19978;-50
2023/03/15 08:51:02;;;;;;;;;;;24.50;99.90;;;;;;4903881;29;20006;-50
2023/03/15 08:53:27;;;;;;;;;;;24.50;99.90;;;;;;4907677;29;19918;-50
2023/03/15 08:55:53;;;;;;;;;;;24.50;99.90;;;;;;4917037;29;19911;-50
2023/03/15 08:58:18;;;;;;;;;;;24.50;99.90;;;;;;4931694;29;19946;-49
2023/03/15 09:00:45;;;;;;;;;;;24.50;99.90;;;;;;4918008;29;19930;-50
2023/03/15 09:03:10;;;;;;;;;;;24.60;99.90;;;;;;4917975;29;19911;-50
2023/03/15 09:05:36;;;;;;;;;;;24.60;99.90;;;;;;4917856;29;20458;-50
2023/03/15 09:08:01;;;;;;;;;;;24.60;99.90;;;;;;4917634;29;19918;-50
2023/03/15 09:10:27;;;;;;;;;;;24.60;99.90;;;;;;4917673;29;19922;-51
2023/03/15 09:12:53;;;;;;;;;;;24.60;99.90;;;;;;4917856;29;20332;-50
2023/03/15 09:15:18;;;;;;;;;;;24.60;99.90;;;;;;4917594;29;19931;-50
2023/03/15 09:17:44;;;;;;;;;;;24.60;99.90;;;;;;4918084;29;20257;-50
2023/03/15 09:20:13;;;;;;;;;;;24.60;99.90;;;;;;4917491;29;20378;-49
2023/03/15 09:22:42;;;;;;;;;;;24.60;99.90;;;;;;4917920;29;19968;-50
2023/03/15 09:25:08;;;;;;;;;;;24.70;99.90;;;;;;4916366;29;20356;-50
2023/03/15 09:27:34;;;;;;;;;;;24.70;99.90;;;;;;4916780;29;19952;-50
2023/03/15 09:30:00;;;;;;;;;;;24.70;99.90;;;;;;4916603;29;19915;-52
2023/03/15 09:32:25;;;;;;;;;;;24.70;99.90;;;;;;4931341;29;19911;-52
2023/03/15 09:34:51;;;;;;;;;;;24.70;99.90;;;;;;4915182;29;19911;-51
2023/03/15 09:37:17;;;;;;;;;;;24.70;99.90;;;;;;4917245;29;20267;-52
2023/03/15 09:39:42;;;;;;;;;;;24.70;99.90;;;;;;4915344;29;19911;-51
2023/03/15 09:42:17;;;;;;;;;;;24.70;99.90;;;;;;4916636;29;19911;-52
2023/03/15 09:44:53;;;;;;;;;;;24.70;99.90;;;;;;4913999;29;19915;-52
2023/03/15 09:47:18;;;;;;;;;;;24.70;99.90;;;;;;4898753;29;19911;-51
2023/03/15 09:49:46;;;;;;;;;;;24.80;99.90;;;;;;4917447;29;20014;-52
2023/03/15 09:52:25;;;;;;;;;;;24.80;99.90;;;;;;4917508;29;19980;-51
2023/03/15 09:55:17;;;;;;;;;;;24.80;99.90;;;;;;4913436;29;20336;-51
2023/03/15 09:57:57;;;;;;;;;;;24.80;99.90;;;;;;4927022;29;19911;-50
2023/03/15 10:00:32;;;;;;;;;;;24.90;99.90;;;;;;4917322;29;19923;-52
2023/03/15 10:03:00;;;;;;;;;;;24.90;99.90;;;;;;4917247;29;19962;-52
2023/03/15 10:05:46;;;;;;;;;;;24.90;99.90;;;;;;4916160;29;19935;-51
2023/03/15 10:08:14;;;;;;;;;;;25.00;99.90;;;;;;4916132;29;20006;-50
2023/03/15 10:10:48;;;;;;;;;;;25.00;99.90;;;;;;4914816;29;19915;-51
2023/03/15 10:13:19;;;;;;;;;;;25.00;99.90;;;;;;4917302;29;19997;-51
2023/03/15 10:15:48;;;;;;;;;;;25.00;99.90;;;;;;4917569;29;19907;-51
2023/03/15 10:18:32;;;;;;;;;;;25.10;99.90;;;;;;4917637;29;20279;-51
2023/03/15 10:21:10;;;;;;;;;;;25.10;99.90;;;;;;4917448;29;20439;-51
2023/03/15 10:24:05;;;;;;;;;;;25.20;99.90;;;;;;4913627;29;19915;-47
2023/03/15 10:26:33;;;;;;;;;;;25.20;99.90;;;;;;4908310;29;19919;-48
2023/03/15 10:29:01;;;;;;;;;;;25.10;99.90;;;;;;4911425;29;19922;-48
2023/03/15 10:31:30;;;;;;;;;;;25.10;99.90;;;;;;4896959;29;19908;-49
2023/03/15 10:33:56;;;;;;;;;;;25.20;99.90;;;;;;4902868;29;19958;-49
2023/03/15 10:36:22;;;;;;;;;;;25.10;99.90;;;;;;4907276;29;19912;-48
2023/03/15 10:38:49;;;;;;;;;;;25.10;99.90;;;;;;4906020;29;19914;-48
2023/03/15 10:41:47;;;;;;;;;;;25.00;99.90;;;;;;4897477;29;19911;-49
2023/03/15 10:44:17;;;;;;;;;;;25.00;99.90;;;;;;4911651;29;19915;-48
2023/03/15 10:46:59;;;;;;;;;;;25.00;99.90;;;;;;4897273;29;19931;-49
2023/03/15 10:49:32;;;;;;;;;;;25.00;99.90;;;;;;4896731;29;20527;-48
2023/03/15 10:51:57;;;;;;;;;;;25.00;99.90;;;;;;4897649;29;19915;-48
2023/03/15 10:54:23;;;;;;;;;;;25.00;99.90;;;;;;4897220;29;19911;-48
2023/03/15 10:57:00;;;;;;;;;;;24.90;99.90;;;;;;4900435;29;20359;-49
2023/03/15 10:59:27;;;;;;;;;;;24.90;99.90;;;;;;4899529;29;20001;-48
2023/03/15 11:02:06;;;;;;;;;;;24.90;99.90;;;;;;4906500;29;19990;-49
2023/03/15 11:04:32;;;;;;;;;;;24.90;99.90;;;;;;4912704;29;19907;-49
2023/03/15 11:07:02;;;;;;;;;;;24.80;99.90;;;;;;4903577;29;19915;-49
2023/03/15 11:09:41;;;;;;;;;;;24.80;99.90;;;;;;4910107;29;19971;-48
2023/03/15 11:12:26;;;;;;;;;;;24.80;99.90;;;;;;4902043;29;19907;-49
2023/03/15 11:14:57;;;;;;;;;;;24.80;99.90;;;;;;4897388;29;19907;-48
2023/03/15 11:17:34;;;;;;;;;;;24.90;99.90;;;;;;4896955;29;20371;-49
2023/03/15 11:20:13;;;;;;;;;;;25.00;99.90;;;;;;4896470;29;20279;-48
2023/03/15 11:22:39;;;;;;;;;;;25.00;99.90;;;;;;4899262;29;19953;-49
2023/03/15 11:25:10;;;;;;;;;;;25.10;99.90;;;;;;4900666;29;19956;-49
2023/03/15 11:27:36;;;;;;;;;;;25.10;99.90;;;;;;4896743;29;20298;-49
2023/03/15 11:30:03;;;;;;;;;;;25.20;99.90;;;;;;4905081;29;19919;-49
2023/03/15 11:32:30;;;;;;;;;;;25.30;99.90;;;;;;4910555;29;19919;-49
2023/03/15 11:34:59;;;;;;;;;;;25.30;99.90;;;;;;4902080;29;19915;-49
2023/03/15 11:37:33;;;;;;;;;;;25.40;99.90;;;;;;4905111;29;19914;-48
2023/03/15 11:40:01;;;;;;;;;;;25.40;99.90;;;;;;4896257;29;19994;-48
2023/03/15 11:42:32;;;;;;;;;;;25.50;99.90;;;;;;4907171;29;20379;-48
2023/03/15 11:45:02;;;;;;;;;;;25.50;99.90;;;;;;4915953;29;20354;-48
2023/03/15 11:47:34;;;;;;;;;;;25.60;99.90;;;;;;4910775;29;19911;-48
2023/03/15 11:49:59;;;;;;;;;;;25.70;99.90;;;;;;4905703;29;19943;-48
2023/03/15 11:52:27;;;;;;;;;;;25.70;99.90;;;;;;4896369;29;20002;-49
2023/03/15 11:55:04;;;;;;;;;;;25.70;99.90;;;;;;4896378;29;19914;-49
2023/03/15 11:57:34;;;;;;;;;;;25.80;99.90;;;;;;4898653;29;19911;-49
2023/03/15 12:00:15;;;;;;;;;;;25.80;99.90;;;;;;4912486;29;19918;-49
2023/03/15 12:02:49;;;;;;;;;;;25.90;99.90;;;;;;4908044;29;19917;-49
2023/03/15 12:05:34;;;;;;;;;;;25.90;99.90;;;;;;4908182;29;20264;-49
2023/03/15 12:08:15;;;;;;;;;;;25.90;99.90;;;;;;4897088;29;19967;-49
2023/03/15 12:10:45;;;;;;;;;;;26.00;99.90;;;;;;4902755;29;19914;-50
2023/03/15 12:13:19;;;;;;;;;;;26.00;99.90;;;;;;4916057;29;20276;-50
2023/03/15 12:15:45;;;;;;;;;;;26.00;99.90;;;;;;4914310;29;19914;-50
2023/03/15 12:18:13;;;;;;;;;;;26.00;99.90;;;;;;4908555;29;19915;-50
2023/03/15 12:20:41;;;;;;;;;;;26.00;99.90;;;;;;4909697;29;19972;-49
2023/03/15 12:23:16;;;;;;;;;;;26.00;99.90;;;;;;4906765;29;19921;-50
2023/03/15 12:25:51;;;;;;;;;;;26.00;99.90;;;;;;4916408;29;19907;-50
2023/03/15 12:28:21;;;;;;;;;;;25.90;99.90;;;;;;4911718;29;19907;-49
2023/03/15 12:30:51;;;;;;;;;;;25.90;99.90;;;;;;4909215;29;20312;-51
2023/03/15 12:33:19;;;;;;;;;;;25.90;99.90;;;;;;4915987;29;20001;-50
2023/03/15 12:35:45;;;;;;;;;;;26.00;99.90;;;;;;4900052;29;19907;-51
2023/03/15 12:38:13;;;;;;;;;;;26.00;99.90;;;;;;4899739;29;19908;-50
2023/03/15 12:40:48;;;;;;;;;;;26.10;99.90;;;;;;4903361;29;20055;-50
2023/03/15 12:43:14;;;;;;;;;;;26.10;99.90;;;;;;4911127;29;20275;-50
2023/03/15 12:45:42;;;;;;;;;;;26.20;99.90;;;;;;4903366;29;19907;-50
2023/03/15 12:48:11;;;;;;;;;;;26.20;99.90;;;;;;4904137;29;19995;-50
2023/03/15 12:50:49;;;;;;;;;;;26.20;99.90;;;;;;4897648;29;19920;-51
2023/03/15 12:53:15;;;;;;;;;;;26.30;99.90;;;;;;4903842;29;19911;-51
2023/03/15 12:55:40;;;;;;;;;;;26.30;99.90;;;;;;4903277;29;19919;-52
2023/03/15 12:58:09;;;;;;;;;;;26.40;99.90;;;;;;4902929;29;19914;-52
2023/03/15 13:00:36;;;;;;;;;;;26.40;99.90;;;;;;4902187;29;19919;-51
2023/03/15 13:03:07;;;;;;;;;;;26.40;99.90;;;;;;4900995;29;19994;-52
2023/03/15 13:05:36;;;;;;;;;;;26.40;99.90;;;;;;4909022;29;19966;-51
2023/03/15 13:08:34;;;;;;;;;;;26.50;99.90;;;;;;4905068;29;20030;-52
2023/03/15 13:10:59;;;;;;;;;;;26.50;99.90;;;;;;4887466;29;19916;-51
2023/03/15 13:13:35;;;;;;;;;;;26.50;99.90;;;;;;4900513;29;19974;-54
2023/03/15 13:16:08;;;;;;;;;;;26.60;99.90;;;;;;4898722;29;19911;-51
2023/03/15 13:18:43;;;;;;;;;;;26.50;99.90;;;;;;4901085;29;19967;-51
2023/03/15 13:21:14;;;;;;;;;;;26.60;99.90;;;;;;4899584;29;19946;-51
2023/03/15 13:23:43;;;;;;;;;;;26.60;99.90;;;;;;4901671;29;20291;-52
2023/03/15 13:26:14;;;;;;;;;;;26.60;99.90;;;;;;4900424;29;20152;-52
2023/03/15 13:29:00;;;;;;;;;;;26.60;99.90;;;;;;4899779;29;19978;-53
2023/03/15 13:31:27;;;;;;;;;;;26.70;99.90;;;;;;4902128;29;20336;-52
2023/03/15 13:33:56;;;;;;;;;;;26.70;99.90;;;;;;4907139;29;20420;-51
2023/03/15 13:36:26;;;;;;;;;;;26.70;99.90;;;;;;4902923;29;20348;-52
2023/03/15 13:38:53;;;;;;;;;;;26.70;99.90;;;;;;4898722;29;19930;-53
2023/03/15 13:41:26;;;;;;;;;;;26.70;99.90;;;;;;4899795;29;19975;-52
2023/03/15 13:43:53;;;;;;;;;;;26.80;99.90;;;;;;4901199;29;19907;-53
2023/03/15 13:46:21;;;;;;;;;;;26.80;99.90;;;;;;4909182;29;19942;-52
2023/03/15 13:48:47;;;;;;;;;;;26.80;99.90;;;;;;4903948;29;19911;-52
2023/03/15 13:51:22;;;;;;;;;;;26.80;99.90;;;;;;4903625;29;19925;-52
2023/03/15 13:53:49;;;;;;;;;;;26.80;99.90;;;;;;4900687;29;19919;-52
2023/03/15 13:56:19;;;;;;;;;;;26.90;99.90;;;;;;4901424;29;19907;-51
2023/03/15 13:58:45;;;;;;;;;;;26.90;99.90;;;;;;4900539;29;19950;-50
2023/03/15 14:01:11;;;;;;;;;;;26.80;99.90;;;;;;4899896;29;19959;-51
2023/03/15 14:03:40;;;;;;;;;;;26.90;99.90;;;;;;4899853;29;19907;-51
2023/03/15 14:06:06;;;;;;;;;;;26.90;99.90;;;;;;4902585;29;19930;-49
2023/03/15 14:08:33;;;;;;;;;;;26.90;99.90;;;;;;4899275;29;20357;-51
2023/03/15 14:11:08;;;;;;;;;;;26.90;99.90;;;;;;4898103;29;19920;-48
2023/03/15 14:13:56;;;;;;;;;;;26.90;99.90;;;;;;4898595;29;19911;-48
2023/03/15 14:16:28;;;;;;;;;;;26.90;99.90;;;;;;4899967;29;19961;-50
2023/03/15 14:18:53;;;;;;;;;;;26.90;99.90;;;;;;4909114;29;19911;-49
2023/03/15 14:21:27;;;;;;;;;;;26.90;99.90;;;;;;4899612;29;19923;-48